Time;durP1;ratioP1;P1;durP2;ratioP2;P2;SDS_P1;SDS_P2;PMS_P1;PMS_P2;Temp;Humidity;BMP_temperature;BMP_pressure;BME280_temperature;BME280_humidity;BME280_pressure;Samples;Min_cycle;Max_cycle;Signal;HPM_P1;HPM_P2
2022/04/21 00:00:04;;;;;;;7.20;4.95;;;8.30;99.90;;;;;;4968040;28;20445;-83
2022/04/21 00:02:30;;;;;;;11.07;5.40;;;8.30;99.90;;;;;;4966234;28;20378;-83
2022/04/21 00:04:56;;;;;;;8.82;5.03;;;8.30;99.90;;;;;;4956796;28;20450;-84
2022/04/21 00:07:22;;;;;;;8.10;5.30;;;8.40;99.90;;;;;;4969138;28;20383;-82
2022/04/21 00:09:51;;;;;;;7.13;4.90;;;8.30;99.90;;;;;;4950423;28;20876;-83
2022/04/21 00:12:17;;;;;;;9.03;5.30;;;8.30;99.90;;;;;;4969680;28;20399;-83
2022/04/21 00:14:43;;;;;;;8.00;5.60;;;8.30;99.90;;;;;;4956794;28;20386;-83
2022/04/21 00:17:09;;;;;;;9.73;5.83;;;8.40;99.90;;;;;;4969060;28;20449;-83
2022/04/21 00:19:35;;;;;;;11.15;6.18;;;8.40;99.90;;;;;;4968113;28;20394;-83
2022/04/21 00:24:45;;;;;;;8.90;5.30;;;8.30;99.90;;;;;;4970491;28;20911;-82
2022/04/21 00:27:11;;;;;;;10.48;5.88;;;8.30;99.90;;;;;;4969736;28;20436;-83
2022/04/21 00:29:37;;;;;;;8.35;5.18;;;8.20;99.90;;;;;;4963222;28;20861;-83
2022/04/21 00:32:03;;;;;;;10.82;5.53;;;8.30;99.90;;;;;;4972650;28;20378;-83
2022/04/21 00:34:31;;;;;;;10.63;5.97;;;8.20;99.90;;;;;;4971908;28;20402;-83
2022/04/21 00:36:56;;;;;;;11.50;5.68;;;8.10;99.90;;;;;;4951165;28;20926;-83
2022/04/21 00:39:22;;;;;;;9.90;5.83;;;8.10;99.90;;;;;;4972844;28;20386;-83
2022/04/21 00:41:48;;;;;;;13.10;6.30;;;8.20;99.90;;;;;;4973658;28;20406;-82
2022/04/21 00:44:13;;;;;;;12.18;5.95;;;8.10;99.90;;;;;;4974928;28;20801;-82
2022/04/21 00:46:41;;;;;;;11.57;6.10;;;8.10;99.90;;;;;;4961611;28;20449;-82
2022/04/21 00:49:08;;;;;;;10.77;6.30;;;8.10;99.90;;;;;;4961149;28;20412;-83
2022/04/21 00:51:35;;;;;;;9.93;6.32;;;8.20;99.90;;;;;;4963664;28;20392;-83
2022/04/21 00:54:00;;;;;;;11.98;6.00;;;8.20;99.90;;;;;;4971019;28;20405;-83
2022/04/21 00:56:26;;;;;;;10.35;6.15;;;8.10;99.90;;;;;;4973843;28;20434;-83
2022/04/21 00:58:56;;;;;;;11.35;6.35;;;8.10;99.90;;;;;;4973395;28;20387;-82
2022/04/21 01:04:05;;;;;;;12.68;6.22;;;8.00;99.90;;;;;;4973062;28;20430;-84
2022/04/21 01:06:31;;;;;;;8.20;5.73;;;8.00;99.90;;;;;;4955115;28;20884;-84
2022/04/21 01:08:57;;;;;;;11.10;6.37;;;7.90;99.90;;;;;;4974594;28;20861;-83
2022/04/21 01:11:22;;;;;;;11.02;6.97;;;7.90;99.90;;;;;;4973831;28;20749;-83
2022/04/21 01:13:48;;;;;;;11.82;6.40;;;7.80;99.90;;;;;;4955818;28;20410;-83
2022/04/21 01:16:14;;;;;;;10.73;6.10;;;7.80;99.90;;;;;;4954678;28;20402;-83
2022/04/21 01:18:41;;;;;;;9.33;5.77;;;7.70;99.90;;;;;;4973429;28;20615;-82
2022/04/21 01:21:07;;;;;;;11.93;6.40;;;7.80;99.90;;;;;;4972652;28;20745;-83
2022/04/21 01:23:32;;;;;;;14.27;6.88;;;8.00;99.90;;;;;;4972951;28;20399;-83
2022/04/21 01:26:01;;;;;;;13.50;6.30;;;7.80;99.90;;;;;;4972204;28;21101;-82
2022/04/21 01:28:27;;;;;;;11.43;6.30;;;7.80;99.90;;;;;;4954500;28;20493;-83
2022/04/21 01:30:57;;;;;;;9.27;5.88;;;7.90;99.90;;;;;;4971930;28;20446;-83
2022/04/21 01:33:24;;;;;;;12.32;6.10;;;7.90;99.90;;;;;;4954904;28;20394;-83
2022/04/21 01:35:50;;;;;;;11.27;6.53;;;7.80;99.90;;;;;;4954692;28;20411;-83
2022/04/21 01:41:09;;;;;;;10.57;6.60;;;7.80;99.90;;;;;;4971957;28;20466;-83
2022/04/21 01:43:35;;;;;;;12.05;6.60;;;7.70;99.90;;;;;;4971695;28;20469;-83
2022/04/21 01:46:01;;;;;;;9.50;5.80;;;7.80;99.90;;;;;;4954362;28;20440;-83
2022/04/21 01:48:27;;;;;;;10.45;6.32;;;7.80;99.90;;;;;;4954183;28;20385;-83
2022/04/21 01:50:53;;;;;;;11.55;6.57;;;7.70;99.90;;;;;;4971886;28;20418;-82
2022/04/21 01:53:19;;;;;;;10.68;6.07;;;7.70;99.90;;;;;;4954258;28;20935;-82
2022/04/21 01:55:46;;;;;;;11.98;6.07;;;7.80;99.90;;;;;;4971451;28;20975;-83
2022/04/21 01:58:12;;;;;;;10.85;6.10;;;7.70;99.90;;;;;;4954018;28;20411;-83
2022/04/21 02:00:38;;;;;;;11.40;6.20;;;7.80;99.90;;;;;;4971340;28;20383;-83
2022/04/21 02:03:04;;;;;;;12.98;6.35;;;7.90;99.90;;;;;;4971706;28;20405;-83
2022/04/21 02:05:30;;;;;;;9.83;6.50;;;8.00;99.90;;;;;;4954120;28;20828;-83
2022/04/21 02:07:56;;;;;;;12.33;6.73;;;7.90;99.90;;;;;;4971432;28;20423;-83
2022/04/21 02:10:22;;;;;;;13.07;6.30;;;7.90;99.90;;;;;;4971290;28;20387;-83
2022/04/21 02:12:48;;;;;;;12.00;6.13;;;7.90;99.90;;;;;;4953228;28;20406;-84
2022/04/21 02:15:17;;;;;;;10.70;6.40;;;7.90;99.90;;;;;;4954101;28;20387;-83
2022/04/21 02:17:44;;;;;;;11.45;6.32;;;7.70;99.90;;;;;;4954691;28;20885;-83
2022/04/21 02:20:14;;;;;;;10.73;6.22;;;7.70;99.90;;;;;;4971416;28;20394;-83
2022/04/21 02:22:40;;;;;;;11.23;6.43;;;7.90;99.90;;;;;;4954347;28;20531;-83
2022/04/21 02:25:09;;;;;;;11.88;6.68;;;7.90;99.90;;;;;;4971475;28;20578;-83
2022/04/21 02:27:40;;;;;;;10.17;6.00;;;7.80;99.90;;;;;;4971906;28;20452;-83
2022/04/21 02:30:07;;;;;;;11.17;6.40;;;7.90;99.90;;;;;;4947971;28;20391;-83
2022/04/21 02:32:34;;;;;;;14.23;7.63;;;7.90;99.90;;;;;;4953718;28;20391;-84
2022/04/21 02:35:04;;;;;;;13.85;7.10;;;7.70;99.90;;;;;;4953814;28;20386;-83
2022/04/21 02:37:41;;;;;;;10.37;6.50;;;7.60;99.90;;;;;;4953709;28;20947;-83
2022/04/21 02:40:09;;;;;;;12.17;6.67;;;7.50;99.90;;;;;;4971145;28;20469;-82
2022/04/21 02:42:43;;;;;;;10.77;6.85;;;7.40;99.90;;;;;;4953349;28;20734;-82
2022/04/21 02:45:11;;;;;;;12.20;6.63;;;7.50;99.90;;;;;;4971180;28;20426;-82
2022/04/21 02:47:38;;;;;;;11.25;7.07;;;7.40;99.90;;;;;;4953811;28;20379;-82
2022/04/21 02:50:06;;;;;;;11.30;6.68;;;7.50;99.90;;;;;;4953518;28;20393;-82
2022/04/21 02:52:35;;;;;;;13.07;6.90;;;7.60;99.90;;;;;;4970857;28;20384;-83
2022/04/21 02:57:45;;;;;;;12.60;7.23;;;7.70;99.90;;;;;;4970218;28;20575;-82
2022/04/21 03:00:12;;;;;;;11.63;6.90;;;7.80;99.90;;;;;;4970694;28;20438;-82
2022/04/21 03:02:37;;;;;;;9.77;6.70;;;7.80;99.90;;;;;;4970823;28;20383;-82
2022/04/21 03:05:03;;;;;;;11.90;6.40;;;7.90;99.90;;;;;;4953228;28;20442;-83
2022/04/21 03:07:29;;;;;;;11.43;6.60;;;7.90;99.90;;;;;;4953223;28;20390;-82
2022/04/21 03:09:55;;;;;;;14.48;6.93;;;7.90;99.90;;;;;;4953202;28;20896;-82
2022/04/21 03:12:26;;;;;;;9.80;6.60;;;7.90;99.90;;;;;;4953121;28;20386;-82
2022/04/21 03:14:53;;;;;;;13.60;7.28;;;8.00;99.90;;;;;;4970005;28;20414;-82
2022/04/21 03:17:19;;;;;;;12.18;6.45;;;8.00;99.90;;;;;;4970634;28;20905;-82
2022/04/21 03:19:45;;;;;;;13.50;7.18;;;7.90;99.90;;;;;;4970305;28;20390;-82
2022/04/21 03:24:58;;;;;;;9.57;6.45;;;7.90;99.90;;;;;;4964381;28;20398;-82
2022/04/21 03:27:26;;;;;;;11.55;7.43;;;7.90;99.90;;;;;;4969933;28;20406;-82
2022/04/21 03:29:52;;;;;;;15.38;8.00;;;7.90;99.90;;;;;;4952490;28;20402;-82
2022/04/21 03:32:18;;;;;;;12.30;7.25;;;7.90;99.90;;;;;;4969867;28;20375;-81
2022/04/21 03:34:44;;;;;;;12.55;7.18;;;7.80;99.90;;;;;;4953046;28;20402;-82
2022/04/21 03:37:11;;;;;;;12.68;6.88;;;7.90;99.90;;;;;;4970348;28;20897;-83
2022/04/21 03:39:38;;;;;;;12.40;7.35;;;7.90;99.90;;;;;;4964312;28;20382;-83
2022/04/21 03:42:05;;;;;;;12.13;7.23;;;7.90;99.90;;;;;;4963739;28;20386;-82
2022/04/21 03:44:31;;;;;;;10.30;6.80;;;7.90;99.90;;;;;;4952837;28;20406;-82
2022/04/21 03:46:59;;;;;;;13.85;7.55;;;7.90;99.90;;;;;;4970058;28;20371;-82
2022/04/21 03:49:29;;;;;;;14.17;7.10;;;8.00;99.90;;;;;;4952648;28;20413;-82
2022/04/21 03:51:56;;;;;;;12.90;7.67;;;7.90;99.90;;;;;;4952567;28;20493;-83
2022/04/21 03:54:22;;;;;;;10.53;6.87;;;7.90;99.90;;;;;;4969963;28;20382;-81
2022/04/21 03:56:49;;;;;;;11.63;7.40;;;7.90;99.90;;;;;;4952877;28;20594;-82
2022/04/21 03:59:16;;;;;;;12.32;7.35;;;7.80;99.90;;;;;;4968077;28;20402;-82
2022/04/21 04:01:41;;;;;;;11.53;7.23;;;7.90;99.90;;;;;;4963103;28;20437;-82
2022/04/21 04:04:07;;;;;;;11.47;6.90;;;7.80;99.90;;;;;;4952432;28;20915;-82
2022/04/21 04:12:03;;;;;;;13.60;7.90;;;7.90;99.90;;;;;;4970094;28;20851;-82
2022/04/21 04:14:29;;;;;;;14.43;7.45;;;7.90;99.90;;;;;;4952242;28;20493;-82
2022/04/21 04:16:55;;;;;;;11.37;7.03;;;7.90;99.90;;;;;;4969331;28;20457;-82
2022/04/21 04:19:21;;;;;;;13.37;7.20;;;7.90;99.90;;;;;;4952540;28;20394;-82
2022/04/21 04:21:49;;;;;;;11.50;7.40;;;7.90;99.90;;;;;;4969948;28;20390;-83
2022/04/21 04:24:15;;;;;;;14.10;7.53;;;7.90;99.90;;;;;;4951875;28;20398;-82
2022/04/21 04:26:41;;;;;;;11.68;7.75;;;7.90;99.90;;;;;;4952124;28;20394;-82
2022/04/21 04:29:07;;;;;;;15.18;7.65;;;7.90;99.90;;;;;;4969185;28;20874;-82
2022/04/21 04:31:33;;;;;;;13.57;7.75;;;7.90;99.90;;;;;;4952260;28;20394;-82
2022/04/21 04:33:59;;;;;;;14.52;7.75;;;7.80;99.90;;;;;;4969391;28;20395;-82
2022/04/21 04:36:25;;;;;;;12.40;7.47;;;7.80;99.90;;;;;;4969635;28;20525;-82
2022/04/21 04:38:51;;;;;;;11.60;6.93;;;7.90;99.90;;;;;;4952186;28;20470;-82
2022/04/21 04:44:01;;;;;;;11.45;7.03;;;7.80;99.90;;;;;;4970188;28;20401;-82
2022/04/21 04:46:35;;;;;;;14.77;7.37;;;7.90;99.90;;;;;;4952326;28;20452;-82
2022/04/21 04:49:02;;;;;;;13.07;8.10;;;8.00;99.90;;;;;;4969772;28;20378;-82
2022/04/21 04:51:28;;;;;;;13.52;7.43;;;7.90;99.90;;;;;;4951701;28;20395;-82
2022/04/21 04:53:54;;;;;;;13.53;7.10;;;7.90;99.90;;;;;;4952323;28;20393;-82
2022/04/21 04:56:23;;;;;;;10.88;6.75;;;8.10;99.90;;;;;;4969441;28;20417;-81
2022/04/21 04:58:50;;;;;;;11.73;6.82;;;8.00;99.90;;;;;;4968492;28;20403;-82
2022/04/21 05:01:27;;;;;;;12.77;7.35;;;8.00;99.90;;;;;;4951627;28;20892;-82
2022/04/21 05:04:00;;;;;;;10.52;6.72;;;8.00;99.90;;;;;;4951884;28;20741;-82
2022/04/21 05:06:37;;;;;;;13.77;7.18;;;8.10;99.90;;;;;;4952344;28;20374;-82
2022/04/21 05:09:05;;;;;;;12.40;7.45;;;8.10;99.90;;;;;;4951080;28;20422;-82
2022/04/21 05:11:31;;;;;;;15.57;7.95;;;8.00;99.90;;;;;;4951661;28;20719;-82
2022/04/21 05:13:57;;;;;;;12.90;7.15;;;8.00;99.90;;;;;;4971974;28;20397;-82
2022/04/21 05:16:23;;;;;;;12.38;7.40;;;8.00;99.90;;;;;;4972388;28;20418;-82
2022/04/21 05:18:49;;;;;;;13.52;7.63;;;8.00;99.90;;;;;;4972730;28;20911;-81
2022/04/21 05:21:17;;;;;;;13.38;8.07;;;8.10;99.90;;;;;;4973042;28;20999;-82
2022/04/21 05:23:46;;;;;;;14.07;8.35;;;8.10;99.90;;;;;;4956061;28;20457;-82
2022/04/21 05:26:12;;;;;;;13.07;7.80;;;8.00;99.90;;;;;;4939321;28;20399;-82
2022/04/21 05:28:38;;;;;;;13.98;7.80;;;7.90;99.90;;;;;;4972418;28;20461;-82
2022/04/21 05:31:04;;;;;;;12.18;7.03;;;8.00;99.90;;;;;;4971771;28;20379;-82
2022/04/21 05:33:31;;;;;;;15.07;7.30;;;7.90;99.90;;;;;;4954566;28;20482;-82
2022/04/21 05:35:58;;;;;;;14.97;8.40;;;8.10;99.90;;;;;;4955210;28;20464;-82
2022/04/21 05:38:24;;;;;;;11.27;7.35;;;8.10;99.90;;;;;;4955048;28;20906;-82
2022/04/21 05:40:52;;;;;;;11.50;7.13;;;8.30;99.90;;;;;;4955281;28;20917;-82
2022/04/21 05:43:19;;;;;;;15.98;7.78;;;8.30;99.90;;;;;;4955571;28;20870;-82
2022/04/21 05:45:49;;;;;;;12.20;7.60;;;8.40;99.90;;;;;;4955075;28;20407;-82
2022/04/21 05:48:15;;;;;;;12.38;7.18;;;8.40;99.90;;;;;;4972880;28;20387;-82
2022/04/21 05:50:48;;;;;;;12.87;7.13;;;8.40;99.90;;;;;;4954807;28;20386;-82
2022/04/21 05:53:26;;;;;;;11.57;7.93;;;8.50;99.90;;;;;;4973155;28;20444;-82
2022/04/21 05:55:53;;;;;;;14.10;7.85;;;8.50;99.90;;;;;;4955996;28;20414;-82
2022/04/21 05:58:20;;;;;;;13.18;7.30;;;8.50;99.90;;;;;;4953826;28;20761;-82
2022/04/21 06:00:46;;;;;;;12.68;7.40;;;8.40;99.90;;;;;;4955585;28;20391;-82
2022/04/21 06:03:12;;;;;;;13.55;7.85;;;8.40;99.90;;;;;;4973195;28;20398;-82
2022/04/21 06:05:39;;;;;;;10.48;7.38;;;8.50;99.90;;;;;;4973221;28;20417;-82
2022/04/21 06:08:06;;;;;;;12.63;7.43;;;8.60;99.90;;;;;;4955199;28;20975;-82
2022/04/21 06:10:33;;;;;;;12.60;7.13;;;8.50;99.90;;;;;;4955857;28;20478;-82
2022/04/21 06:12:58;;;;;;;9.60;7.25;;;8.60;99.90;;;;;;4972586;28;20461;-82
2022/04/21 06:15:24;;;;;;;11.63;6.83;;;8.50;99.90;;;;;;4954667;28;20447;-82
2022/04/21 06:17:50;;;;;;;13.40;7.50;;;8.70;99.90;;;;;;4954962;28;20375;-82
2022/04/21 06:20:16;;;;;;;10.93;6.85;;;8.90;99.90;;;;;;4954876;28;20393;-82
2022/04/21 06:22:41;;;;;;;12.40;7.63;;;9.00;99.90;;;;;;4972661;28;20400;-82
2022/04/21 06:25:07;;;;;;;13.33;7.00;;;9.00;99.90;;;;;;4971531;28;20441;-82
2022/04/21 06:27:33;;;;;;;14.07;7.28;;;9.00;99.90;;;;;;4954493;28;21748;-82
2022/04/21 06:29:59;;;;;;;11.00;6.82;;;8.90;99.90;;;;;;4954566;28;20470;-82
2022/04/21 06:32:25;;;;;;;11.77;7.00;;;9.00;99.90;;;;;;4972151;28;20398;-82
2022/04/21 06:34:50;;;;;;;12.35;6.90;;;9.00;99.90;;;;;;4954354;28;20409;-82
2022/04/21 06:37:16;;;;;;;15.18;7.22;;;9.00;99.90;;;;;;4955434;28;20880;-82
2022/04/21 06:39:42;;;;;;;13.07;6.80;;;9.00;99.90;;;;;;4954518;28;20409;-82
2022/04/21 06:42:07;;;;;;;12.30;6.95;;;9.10;99.90;;;;;;4972022;28;20908;-82
2022/04/21 06:50:03;;;;;;;10.75;6.68;;;9.10;99.90;;;;;;4972070;28;20450;-82
2022/04/21 06:52:29;;;;;;;10.50;6.47;;;9.40;99.90;;;;;;4954740;28;20382;-82
2022/04/21 06:54:55;;;;;;;13.93;7.15;;;9.40;99.90;;;;;;4954846;28;20398;-82
2022/04/21 06:57:22;;;;;;;11.88;6.80;;;9.40;99.90;;;;;;4971550;28;20465;-82
2022/04/21 06:59:50;;;;;;;13.85;6.70;;;9.30;99.90;;;;;;4955914;28;20394;-82
2022/04/21 07:02:16;;;;;;;11.80;6.80;;;9.30;99.90;;;;;;4971114;28;20920;-82
2022/04/21 07:04:42;;;;;;;11.35;7.05;;;9.50;99.90;;;;;;4953737;28;20426;-82
2022/04/21 07:07:08;;;;;;;11.13;6.63;;;9.50;99.90;;;;;;4954577;28;20465;-82
2022/04/21 07:09:33;;;;;;;13.70;7.40;;;9.70;99.90;;;;;;4971318;28;20382;-82
2022/04/21 07:11:59;;;;;;;12.87;6.87;;;9.70;99.90;;;;;;4971757;28;20374;-83
2022/04/21 07:14:25;;;;;;;13.80;6.60;;;9.90;99.90;;;;;;4971970;28;20802;-82
2022/04/21 07:16:50;;;;;;;10.20;6.43;;;10.00;99.90;;;;;;4970608;28;21004;-83
2022/04/21 07:19:16;;;;;;;8.20;5.90;;;10.20;99.90;;;;;;4953502;28;20382;-82
2022/04/21 07:21:41;;;;;;;14.73;6.53;;;10.30;99.90;;;;;;4970721;28;20386;-82
2022/04/21 07:24:07;;;;;;;14.10;6.23;;;10.50;99.90;;;;;;4954918;28;20885;-81
2022/04/21 07:26:33;;;;;;;10.50;5.82;;;10.60;99.90;;;;;;4971723;28;21181;-82
2022/04/21 07:28:58;;;;;;;8.77;5.90;;;10.70;99.90;;;;;;4953126;28;20960;-82
2022/04/21 07:31:24;;;;;;;9.32;5.50;;;10.90;99.90;;;;;;4953816;28;20959;-82
2022/04/21 07:33:50;;;;;;;11.10;6.40;;;11.10;99.90;;;;;;4970961;28;20445;-82
2022/04/21 07:36:15;;;;;;;11.07;5.83;;;11.20;99.90;;;;;;4970448;28;20417;-83
2022/04/21 07:38:41;;;;;;;11.50;6.03;;;11.20;99.90;;;;;;4970543;28;20437;-84
2022/04/21 07:41:06;;;;;;;14.35;6.85;;;11.00;99.90;;;;;;4970470;28;20433;-82
2022/04/21 07:43:33;;;;;;;10.93;5.80;;;11.00;99.90;;;;;;4953393;28;20426;-82
2022/04/21 07:45:58;;;;;;;9.10;5.93;;;11.00;99.90;;;;;;4971165;28;20960;-82
2022/04/21 07:49:44;;;;;;;9.73;6.67;;;11.20;99.90;;;;;;4970916;28;20403;-82
2022/04/21 07:51:10;;;;;;;10.85;6.38;;;11.10;99.90;;;;;;4966420;28;20394;-82
2022/04/21 07:53:35;;;;;;;10.15;6.05;;;11.00;99.90;;;;;;4968528;28;20379;-82
2022/04/21 07:56:01;;;;;;;17.03;6.47;;;11.10;99.90;;;;;;4967222;28;20408;-82
2022/04/21 07:58:29;;;;;;;9.63;5.88;;;11.20;99.90;;;;;;4954719;28;20442;-82
2022/04/21 08:00:55;;;;;;;12.75;6.35;;;11.30;99.90;;;;;;4951666;28;20402;-82
2022/04/21 08:03:20;;;;;;;11.33;6.43;;;11.30;99.90;;;;;;4951470;28;20399;-82
2022/04/21 08:05:47;;;;;;;12.63;7.28;;;11.20;99.90;;;;;;4953530;28;20379;-82
2022/04/21 08:08:13;;;;;;;12.73;6.95;;;11.00;99.90;;;;;;4952986;28;20395;-82
2022/04/21 08:10:38;;;;;;;10.87;6.73;;;10.90;99.90;;;;;;4971239;28;20390;-82
2022/04/21 08:13:04;;;;;;;11.60;6.47;;;10.80;99.90;;;;;;4970542;28;20386;-82
2022/04/21 08:15:32;;;;;;;10.20;6.20;;;10.70;99.90;;;;;;4948250;28;20400;-82
2022/04/21 08:17:59;;;;;;;11.15;6.63;;;10.70;99.90;;;;;;4969589;28;20477;-82
2022/04/21 08:20:27;;;;;;;13.15;6.97;;;10.80;99.90;;;;;;4949807;28;20783;-83
2022/04/21 08:22:53;;;;;;;10.38;6.85;;;10.90;99.90;;;;;;4952619;28;20774;-82
2022/04/21 08:33:33;;;;;;;11.10;6.22;;;11.40;99.90;;;;;;4965303;28;20429;-82
2022/04/21 08:36:02;;;;;;;13.38;6.32;;;;;;;;;;4969558;28;20434;-83
2022/04/21 08:38:33;;;;;;;15.68;6.55;;;;;;;;;;4952744;28;20884;-83
2022/04/21 08:41:07;;;;;;;20.67;6.93;;;11.80;99.90;;;;;;4968791;28;20398;-82
2022/04/21 08:43:34;;;;;;;12.50;6.63;;;11.70;99.90;;;;;;4968755;28;20399;-82
2022/04/21 08:46:01;;;;;;;12.60;6.63;;;11.40;99.90;;;;;;4969846;28;20424;-81
2022/04/21 08:48:27;;;;;;;10.95;7.03;;;11.30;99.90;;;;;;4971553;28;20390;-82
2022/04/21 08:50:52;;;;;;;12.10;6.45;;;11.40;99.90;;;;;;4955426;28;20730;-82
2022/04/21 08:53:20;;;;;;;11.73;6.77;;;11.20;99.90;;;;;;4973097;28;20385;-82
2022/04/21 08:55:47;;;;;;;10.73;6.70;;;11.30;99.90;;;;;;4973163;28;20387;-81
2022/04/21 08:58:13;;;;;;;10.60;6.95;;;11.50;99.90;;;;;;4955359;28;20398;-81
2022/04/21 09:00:41;;;;;;;9.68;6.57;;;11.60;99.90;;;;;;4954520;28;20398;-82
2022/04/21 09:03:08;;;;;;;10.38;6.50;;;11.70;99.90;;;;;;4970654;28;20402;-83
2022/04/21 09:05:34;;;;;;;12.50;7.22;;;11.60;99.90;;;;;;4973102;28;20383;-83
2022/04/21 09:08:00;;;;;;;29.83;8.00;;;11.80;99.90;;;;;;4955899;28;20385;-82
2022/04/21 09:10:32;;;;;;;10.52;6.30;;;11.90;99.90;;;;;;4968984;28;20911;-82
2022/04/21 09:12:59;;;;;;;12.15;6.60;;;11.70;99.90;;;;;;4964212;28;20390;-82
2022/04/21 09:15:27;;;;;;;11.60;7.00;;;11.70;99.90;;;;;;4973095;28;21572;-82
2022/04/21 09:17:56;;;;;;;10.90;7.03;;;11.70;99.90;;;;;;4955354;28;20421;-82
2022/04/21 09:20:29;;;;;;;13.48;6.85;;;11.80;99.90;;;;;;4972607;28;20935;-82
2022/04/21 09:22:57;;;;;;;13.00;6.80;;;11.90;99.90;;;;;;4972920;28;20753;-82
2022/04/21 09:25:28;;;;;;;11.65;6.70;;;12.00;99.90;;;;;;4955570;28;20405;-82
2022/04/21 09:27:55;;;;;;;9.82;6.40;;;12.00;99.90;;;;;;4972378;28;20884;-81
2022/04/21 09:30:21;;;;;;;11.05;6.47;;;12.00;99.90;;;;;;4972185;28;20382;-81
2022/04/21 09:32:52;;;;;;;9.38;6.90;;;12.30;99.90;;;;;;4972460;28;20375;-82
2022/04/21 09:35:17;;;;;;;12.60;7.45;;;11.90;99.90;;;;;;4972983;28;20478;-82
2022/04/21 09:37:51;;;;;;;25.77;7.93;;;11.90;99.90;;;;;;4972585;28;20493;-82
2022/04/21 09:40:21;;;;;;;16.00;6.50;;;11.70;99.90;;;;;;4955295;28;20430;-82
2022/04/21 09:43:00;;;;;;;11.98;6.60;;;11.80;99.90;;;;;;4972892;28;20413;-82
2022/04/21 09:48:16;;;;;;;11.30;6.83;;;12.00;99.90;;;;;;4968213;28;20398;-83
2022/04/21 09:50:43;;;;;;;13.60;7.30;;;11.90;99.90;;;;;;4954578;28;20899;-83
2022/04/21 09:53:09;;;;;;;11.10;6.10;;;12.00;99.90;;;;;;4971431;28;20489;-83
2022/04/21 09:55:34;;;;;;;12.13;6.40;;;12.10;99.90;;;;;;4970690;28;20490;-82
2022/04/21 09:58:05;;;;;;;10.38;6.35;;;12.20;99.90;;;;;;4953164;28;20623;-83
2022/04/21 10:00:32;;;;;;;11.27;6.30;;;12.20;99.90;;;;;;4967378;28;20395;-84
2022/04/21 10:02:59;;;;;;;10.70;6.43;;;12.20;99.90;;;;;;4971271;28;20853;-82
2022/04/21 10:05:25;;;;;;;10.93;6.25;;;12.20;99.90;;;;;;4953533;28;20407;-82
2022/04/21 10:07:52;;;;;;;10.30;6.60;;;12.30;99.90;;;;;;4971517;28;20378;-83
2022/04/21 10:10:18;;;;;;;11.05;6.43;;;14.40;99.90;;;;;;4965868;28;20504;-83
2022/04/21 10:12:46;;;;;;;10.82;6.18;;;12.70;99.90;;;;;;4970779;28;20489;-83
2022/04/21 10:15:11;;;;;;;9.80;5.50;;;13.10;99.90;;;;;;4970960;28;20471;-83
2022/04/21 10:17:37;;;;;;;11.75;5.85;;;14.00;99.90;;;;;;4969945;28;20413;-83
2022/04/21 10:20:04;;;;;;;10.10;5.45;;;14.20;99.90;;;;;;4970509;28;20434;-84
2022/04/21 10:22:34;;;;;;;9.55;5.60;;;14.70;99.90;;;;;;4970417;28;20790;-83
2022/04/21 10:25:01;;;;;;;11.68;6.30;;;14.80;99.90;;;;;;4934355;28;20403;-84
2022/04/21 10:27:36;;;;;;;8.48;5.78;;;14.70;99.90;;;;;;4966649;28;20387;-83
2022/04/21 10:30:09;;;;;;;13.40;7.18;;;14.40;99.90;;;;;;4968869;28;20782;-84
2022/04/21 10:32:54;;;;;;;9.95;6.57;;;14.20;99.90;;;;;;4951659;28;20390;-84
2022/04/21 10:35:40;;;;;;;14.03;7.23;;;13.80;99.90;;;;;;4962685;28;20400;-83
2022/04/21 10:38:14;;;;;;;10.77;6.63;;;13.60;99.90;;;;;;4967427;28;20923;-84
2022/04/21 10:41:03;;;;;;;9.05;6.57;;;13.80;99.90;;;;;;4969681;28;20391;-83
2022/04/21 10:43:47;;;;;;;12.38;6.25;;;14.00;99.90;;;;;;4954268;28;20406;-83
2022/04/21 10:46:26;;;;;;;15.18;6.40;;;14.10;99.90;;;;;;4966547;28;20425;-82
2022/04/21 10:48:52;;;;;;;12.27;6.07;;;14.10;99.90;;;;;;4953848;28;20417;-84
2022/04/21 10:57:34;;;;;;;16.00;6.90;;;14.10;99.90;;;;;;4965267;28;20424;-83
2022/04/21 11:00:05;;;;;;;9.65;5.78;;;14.30;99.90;;;;;;4952934;28;20793;-83
2022/04/21 11:02:38;;;;;;;10.43;6.25;;;14.30;99.90;;;;;;4958011;28;20526;-82
2022/04/21 11:05:37;;;;;;;11.35;6.20;;;14.10;99.90;;;;;;4953381;28;20870;-82
2022/04/21 11:08:18;;;;;;;9.20;5.65;;;13.70;99.90;;;;;;4938497;28;20387;-83
2022/04/21 11:10:44;;;;;;;9.50;5.80;;;13.60;99.90;;;;;;4970399;28;20445;-82
2022/04/21 11:13:16;;;;;;;8.27;5.85;;;13.50;99.90;;;;;;4970391;28;20465;-83
2022/04/21 11:15:45;;;;;;;17.58;6.45;;;13.60;99.90;;;;;;4970817;28;20383;-83
2022/04/21 11:18:30;;;;;;;8.15;5.53;;;13.80;99.90;;;;;;4952183;28;21094;-84
2022/04/21 11:21:26;;;;;;;6.65;5.07;;;14.30;99.90;;;;;;4970030;28;20393;-83
2022/04/21 11:23:52;;;;;;;8.80;6.30;;;14.30;99.90;;;;;;4970123;28;20422;-83
2022/04/21 11:26:24;;;;;;;9.95;5.40;;;14.40;99.90;;;;;;4970204;28;20414;-84
2022/04/21 11:28:50;;;;;;;9.00;5.90;;;14.60;99.90;;;;;;4949362;28;20400;-83
2022/04/21 11:31:20;;;;;;;9.77;5.43;;;14.80;99.90;;;;;;4955436;28;20395;-83
2022/04/21 11:33:46;;;;;;;7.13;5.82;;;14.90;99.90;;;;;;4952380;28;20457;-83
2022/04/21 11:36:15;;;;;;;8.93;5.68;;;14.60;99.90;;;;;;4952670;28;20464;-84
2022/04/21 11:38:42;;;;;;;9.77;5.85;;;14.50;99.90;;;;;;4952150;28;20387;-83
2022/04/21 11:41:09;;;;;;;9.32;5.63;;;14.60;99.90;;;;;;4969763;28;20858;-84
2022/04/21 11:43:36;;;;;;;20.23;6.75;;;14.60;99.90;;;;;;4952725;28;20962;-83
2022/04/21 11:46:05;;;;;;;11.40;5.70;;;14.60;99.90;;;;;;4952368;28;20745;-82
2022/04/21 11:48:40;;;;;;;9.75;5.70;;;14.80;99.90;;;;;;4952430;28;20407;-83
2022/04/21 11:51:07;;;;;;;7.78;5.53;;;15.20;99.90;;;;;;4953559;28;20493;-83
2022/04/21 11:53:37;;;;;;;7.53;5.30;;;15.30;99.90;;;;;;4969685;28;20441;-82
2022/04/21 11:56:09;;;;;;;7.45;5.55;;;15.10;99.90;;;;;;4966147;28;20810;-82
2022/04/21 11:58:36;;;;;;;7.72;5.55;;;14.80;99.90;;;;;;4967580;28;20395;-84
2022/04/21 12:06:52;;;;;;;6.95;4.97;;;14.90;99.90;;;;;;4964615;28;20410;-83
2022/04/21 12:09:22;;;;;;;6.15;5.07;;;15.00;99.90;;;;;;4948406;28;20927;-83
2022/04/21 12:12:00;;;;;;;23.10;6.25;;;15.00;99.90;;;;;;4968730;28;20386;-82
2022/04/21 12:14:27;;;;;;;10.05;5.35;;;15.30;99.90;;;;;;4950901;28;20399;-84
2022/04/21 12:16:54;;;;;;;7.40;5.00;;;15.20;99.90;;;;;;4948465;28;20963;-83
2022/04/21 12:19:32;;;;;;;7.05;5.28;;;15.10;99.90;;;;;;4968650;28;20391;-83
2022/04/21 12:21:59;;;;;;;8.32;5.00;;;15.00;99.90;;;;;;4944621;28;20441;-83
2022/04/21 12:24:34;;;;;;;8.00;5.40;;;14.70;99.90;;;;;;4953051;28;20398;-83
2022/04/21 12:27:02;;;;;;;7.63;5.28;;;14.50;99.90;;;;;;4949873;28;20429;-83
2022/04/21 12:29:31;;;;;;;11.73;5.63;;;14.60;99.90;;;;;;4949547;28;20971;-84
2022/04/21 12:32:02;;;;;;;12.43;5.22;;;14.60;99.90;;;;;;4959662;28;20398;-84
2022/04/21 12:34:33;;;;;;;7.80;5.00;;;14.80;99.90;;;;;;4948182;28;21208;-83
2022/04/21 12:37:05;;;;;;;7.15;4.72;;;14.90;99.90;;;;;;4968501;28;20408;-84
2022/04/21 12:39:30;;;;;;;7.53;4.75;;;15.10;99.90;;;;;;4946286;28;20435;-83
2022/04/21 12:41:57;;;;;;;5.20;4.20;;;15.30;99.90;;;;;;4950374;28;20425;-83
2022/04/21 12:44:25;;;;;;;37.20;6.90;;;15.20;99.90;;;;;;4949494;28;20390;-83
2022/04/21 12:47:00;;;;;;;10.55;4.65;;;15.20;99.90;;;;;;4965907;28;20442;-83
2022/04/21 12:49:57;;;;;;;17.43;5.30;;;15.20;99.90;;;;;;4946813;28;20446;-84
2022/04/21 12:52:36;;;;;;;9.00;5.28;;;15.00;99.90;;;;;;4949971;28;20753;-83
2022/04/21 12:55:30;;;;;;;7.20;4.70;;;15.00;99.90;;;;;;4962112;28;20866;-82
2022/04/21 12:58:05;;;;;;;32.45;7.57;;;15.10;99.90;;;;;;4962076;28;20418;-83
2022/04/21 13:00:37;;;;;;;5.60;4.75;;;14.80;99.90;;;;;;4966338;28;20393;-84
2022/04/21 13:03:05;;;;;;;6.10;4.93;;;14.50;99.90;;;;;;4966722;28;20552;-83
2022/04/21 13:05:31;;;;;;;6.90;5.23;;;14.20;99.90;;;;;;4967130;28;20386;-85
2022/04/21 13:07:57;;;;;;;9.82;5.60;;;14.20;99.90;;;;;;4966941;28;20396;-83
2022/04/21 13:10:23;;;;;;;9.30;5.75;;;14.10;99.90;;;;;;4949275;28;20425;-82
2022/04/21 13:12:49;;;;;;;7.90;5.22;;;14.00;99.90;;;;;;4966320;28;20450;-83
2022/04/21 13:15:15;;;;;;;7.88;5.32;;;14.00;99.90;;;;;;4966415;28;20397;-84
2022/04/21 13:17:42;;;;;;;7.77;6.07;;;13.90;99.90;;;;;;4966711;28;20472;-83
2022/04/21 13:21:52;;;;;;;7.60;5.97;;;13.80;99.90;;;;;;4948818;28;20414;-83
2022/04/21 13:22:57;;;;;;;6.20;5.32;;;13.80;99.90;;;;;;4964080;28;20747;-83
2022/04/21 13:25:23;;;;;;;6.97;5.70;;;13.70;99.90;;;;;;4966092;28;20404;-83
2022/04/21 13:27:49;;;;;;;8.40;5.90;;;13.60;99.90;;;;;;4968336;28;20390;-83
2022/04/21 13:30:15;;;;;;;7.30;6.00;;;13.60;99.90;;;;;;4949703;28;20386;-83
2022/04/21 13:35:24;;;;;;;12.77;6.78;;;13.50;99.90;;;;;;4969711;28;20453;-82
2022/04/21 13:37:50;;;;;;;7.43;6.40;;;13.60;99.90;;;;;;4967982;28;20416;-83
2022/04/21 13:40:16;;;;;;;8.18;6.95;;;13.50;99.90;;;;;;4953144;28;20411;-83
2022/04/21 13:42:41;;;;;;;6.78;6.07;;;13.40;99.90;;;;;;4953160;28;20383;-83